sensor_id;sensor_type;location;lat;lon;timestamp;P1;durP1;ratioP1;P2;durP2;ratioP2
16073;SDS011;8141;52.664;5.074;2023-04-05T00:01:40;2.27;;;1.47;;
16073;SDS011;8141;52.664;5.074;2023-04-05T00:06:32;1.57;;;1.00;;
16073;SDS011;8141;52.664;5.074;2023-04-05T00:08:58;3.10;;;1.00;;
16073;SDS011;8141;52.664;5.074;2023-04-05T00:11:28;2.67;;;0.97;;
16073;SDS011;8141;52.664;5.074;2023-04-05T00:13:58;1.77;;;1.03;;
16073;SDS011;8141;52.664;5.074;2023-04-05T00:16:25;1.03;;;0.87;;
16073;SDS011;8141;52.664;5.074;2023-04-05T00:18:52;2.10;;;1.00;;
16073;SDS011;8141;52.664;5.074;2023-04-05T00:21:24;1.50;;;0.90;;
16073;SDS011;8141;52.664;5.074;2023-04-05T00:23:54;1.00;;;0.80;;
16073;SDS011;8141;52.664;5.074;2023-04-05T00:26:24;1.17;;;1.00;;
16073;SDS011;8141;52.664;5.074;2023-04-05T00:28:50;1.57;;;1.00;;
16073;SDS011;8141;52.664;5.074;2023-04-05T00:31:17;1.83;;;1.10;;
16073;SDS011;8141;52.664;5.074;2023-04-05T00:33:43;2.30;;;1.87;;
16073;SDS011;8141;52.664;5.074;2023-04-05T00:38:41;3.00;;;1.30;;
16073;SDS011;8141;52.664;5.074;2023-04-05T00:41:09;3.03;;;0.90;;
16073;SDS011;8141;52.664;5.074;2023-04-05T00:43:35;1.60;;;0.90;;
16073;SDS011;8141;52.664;5.074;2023-04-05T00:46:01;1.90;;;0.93;;
16073;SDS011;8141;52.664;5.074;2023-04-05T00:48:30;1.33;;;0.90;;
16073;SDS011;8141;52.664;5.074;2023-04-05T00:50:56;2.40;;;1.00;;
16073;SDS011;8141;52.664;5.074;2023-04-05T00:53:23;1.37;;;1.13;;
16073;SDS011;8141;52.664;5.074;2023-04-05T00:55:51;1.20;;;0.90;;
16073;SDS011;8141;52.664;5.074;2023-04-05T00:58:17;1.20;;;0.80;;
16073;SDS011;8141;52.664;5.074;2023-04-05T01:01:02;2.00;;;0.90;;
16073;SDS011;8141;52.664;5.074;2023-04-05T01:03:34;1.60;;;1.07;;
16073;SDS011;8141;52.664;5.074;2023-04-05T01:06:16;4.87;;;1.57;;
16073;SDS011;8141;52.664;5.074;2023-04-05T01:09:23;1.70;;;1.10;;
16073;SDS011;8141;52.664;5.074;2023-04-05T01:12:08;0.90;;;0.90;;
16073;SDS011;8141;52.664;5.074;2023-04-05T01:14:43;2.13;;;1.00;;
16073;SDS011;8141;52.664;5.074;2023-04-05T01:17:15;0.90;;;0.60;;
16073;SDS011;8141;52.664;5.074;2023-04-05T01:19:49;1.43;;;1.00;;
16073;SDS011;8141;52.664;5.074;2023-04-05T01:31:06;1.00;;;0.90;;
16073;SDS011;8141;52.664;5.074;2023-04-05T01:34:20;1.33;;;0.97;;
16073;SDS011;8141;52.664;5.074;2023-04-05T01:37:10;1.77;;;1.10;;
16073;SDS011;8141;52.664;5.074;2023-04-05T01:39:39;1.90;;;0.90;;
16073;SDS011;8141;52.664;5.074;2023-04-05T01:42:06;1.77;;;0.90;;
16073;SDS011;8141;52.664;5.074;2023-04-05T01:44:32;3.13;;;1.47;;
16073;SDS011;8141;52.664;5.074;2023-04-05T01:46:58;1.37;;;1.17;;
16073;SDS011;8141;52.664;5.074;2023-04-05T01:49:24;2.73;;;1.10;;
16073;SDS011;8141;52.664;5.074;2023-04-05T01:54:16;1.60;;;1.27;;
16073;SDS011;8141;52.664;5.074;2023-04-05T01:56:41;1.60;;;0.87;;
16073;SDS011;8141;52.664;5.074;2023-04-05T02:01:32;0.60;;;0.60;;
16073;SDS011;8141;52.664;5.074;2023-04-05T02:06:24;1.53;;;0.80;;
16073;SDS011;8141;52.664;5.074;2023-04-05T02:08:50;1.40;;;1.00;;
16073;SDS011;8141;52.664;5.074;2023-04-05T02:13:42;0.93;;;0.83;;
16073;SDS011;8141;52.664;5.074;2023-04-05T02:18:33;2.67;;;0.83;;
16073;SDS011;8141;52.664;5.074;2023-04-05T02:23:29;2.10;;;0.90;;
16073;SDS011;8141;52.664;5.074;2023-04-05T02:25:56;2.47;;;0.87;;
16073;SDS011;8141;52.664;5.074;2023-04-05T02:28:23;1.17;;;0.90;;
16073;SDS011;8141;52.664;5.074;2023-04-05T02:30:49;1.50;;;0.97;;
16073;SDS011;8141;52.664;5.074;2023-04-05T02:35:40;1.77;;;1.00;;
16073;SDS011;8141;52.664;5.074;2023-04-05T02:38:06;1.30;;;0.70;;
16073;SDS011;8141;52.664;5.074;2023-04-05T02:40:33;1.23;;;0.73;;
16073;SDS011;8141;52.664;5.074;2023-04-05T02:42:59;1.33;;;0.80;;
16073;SDS011;8141;52.664;5.074;2023-04-05T02:45:26;2.10;;;1.10;;
16073;SDS011;8141;52.664;5.074;2023-04-05T02:47:52;1.77;;;0.90;;
16073;SDS011;8141;52.664;5.074;2023-04-05T02:50:19;2.20;;;0.97;;
16073;SDS011;8141;52.664;5.074;2023-04-05T02:52:45;1.10;;;0.83;;
16073;SDS011;8141;52.664;5.074;2023-04-05T02:55:14;1.73;;;0.80;;
16073;SDS011;8141;52.664;5.074;2023-04-05T02:57:42;1.17;;;0.70;;
16073;SDS011;8141;52.664;5.074;2023-04-05T03:00:08;2.87;;;1.50;;
16073;SDS011;8141;52.664;5.074;2023-04-05T03:02:36;1.37;;;0.97;;
16073;SDS011;8141;52.664;5.074;2023-04-05T03:05:03;2.27;;;1.20;;
16073;SDS011;8141;52.664;5.074;2023-04-05T03:07:30;2.23;;;1.00;;
16073;SDS011;8141;52.664;5.074;2023-04-05T03:09:57;2.47;;;0.83;;
16073;SDS011;8141;52.664;5.074;2023-04-05T03:12:23;1.50;;;1.00;;
16073;SDS011;8141;52.664;5.074;2023-04-05T03:14:49;1.10;;;1.00;;
16073;SDS011;8141;52.664;5.074;2023-04-05T03:19:41;1.63;;;0.83;;
16073;SDS011;8141;52.664;5.074;2023-04-05T03:22:07;1.23;;;0.90;;
16073;SDS011;8141;52.664;5.074;2023-04-05T03:27:01;4.20;;;1.17;;
16073;SDS011;8141;52.664;5.074;2023-04-05T03:29:29;1.83;;;1.10;;
16073;SDS011;8141;52.664;5.074;2023-04-05T03:34:24;1.97;;;0.70;;
16073;SDS011;8141;52.664;5.074;2023-04-05T03:36:52;1.30;;;0.87;;
16073;SDS011;8141;52.664;5.074;2023-04-05T03:39:21;0.83;;;0.77;;
16073;SDS011;8141;52.664;5.074;2023-04-05T03:44:12;1.67;;;0.93;;
16073;SDS011;8141;52.664;5.074;2023-04-05T03:49:04;0.80;;;0.77;;
16073;SDS011;8141;52.664;5.074;2023-04-05T03:51:32;0.90;;;0.70;;
16073;SDS011;8141;52.664;5.074;2023-04-05T03:56:24;5.33;;;1.10;;
16073;SDS011;8141;52.664;5.074;2023-04-05T03:58:51;1.23;;;0.70;;
16073;SDS011;8141;52.664;5.074;2023-04-05T04:01:17;1.13;;;0.80;;
16073;SDS011;8141;52.664;5.074;2023-04-05T04:06:08;0.77;;;0.70;;
16073;SDS011;8141;52.664;5.074;2023-04-05T04:08:35;1.00;;;0.90;;
16073;SDS011;8141;52.664;5.074;2023-04-05T04:13:26;1.50;;;1.07;;
16073;SDS011;8141;52.664;5.074;2023-04-05T04:15:52;1.50;;;1.00;;
16073;SDS011;8141;52.664;5.074;2023-04-05T04:20:43;1.00;;;0.70;;
16073;SDS011;8141;52.664;5.074;2023-04-05T04:25:35;1.27;;;0.70;;
16073;SDS011;8141;52.664;5.074;2023-04-05T04:28:02;1.70;;;0.93;;
16073;SDS011;8141;52.664;5.074;2023-04-05T04:30:31;1.30;;;0.70;;
16073;SDS011;8141;52.664;5.074;2023-04-05T04:33:02;1.83;;;1.00;;
16073;SDS011;8141;52.664;5.074;2023-04-05T04:35:29;1.23;;;0.80;;
16073;SDS011;8141;52.664;5.074;2023-04-05T04:37:59;1.93;;;0.90;;
16073;SDS011;8141;52.664;5.074;2023-04-05T04:40:27;4.53;;;0.80;;
16073;SDS011;8141;52.664;5.074;2023-04-05T04:43:06;1.08;;;0.98;;
16073;SDS011;8141;52.664;5.074;2023-04-05T04:45:43;0.63;;;0.63;;
16073;SDS011;8141;52.664;5.074;2023-04-05T04:48:16;1.33;;;0.87;;
16073;SDS011;8141;52.664;5.074;2023-04-05T04:50:42;2.13;;;0.70;;
16073;SDS011;8141;52.664;5.074;2023-04-05T04:53:14;1.00;;;0.70;;
16073;SDS011;8141;52.664;5.074;2023-04-05T04:55:43;1.20;;;0.90;;
16073;SDS011;8141;52.664;5.074;2023-04-05T04:58:10;1.97;;;1.20;;
16073;SDS011;8141;52.664;5.074;2023-04-05T05:00:38;1.70;;;0.93;;
16073;SDS011;8141;52.664;5.074;2023-04-05T05:03:08;0.80;;;0.80;;
16073;SDS011;8141;52.664;5.074;2023-04-05T05:05:35;1.23;;;0.87;;
16073;SDS011;8141;52.664;5.074;2023-04-05T05:08:12;1.67;;;0.73;;
16073;SDS011;8141;52.664;5.074;2023-04-05T05:10:38;1.20;;;0.90;;
16073;SDS011;8141;52.664;5.074;2023-04-05T05:13:05;1.50;;;0.90;;
16073;SDS011;8141;52.664;5.074;2023-04-05T05:17:56;2.90;;;0.80;;
16073;SDS011;8141;52.664;5.074;2023-04-05T05:22:54;1.53;;;0.80;;
16073;SDS011;8141;52.664;5.074;2023-04-05T05:27:49;1.02;;;0.95;;
16073;SDS011;8141;52.664;5.074;2023-04-05T05:30:15;2.83;;;0.57;;
16073;SDS011;8141;52.664;5.074;2023-04-05T05:32:42;1.53;;;0.90;;
16073;SDS011;8141;52.664;5.074;2023-04-05T05:37:33;1.63;;;1.00;;
16073;SDS011;8141;52.664;5.074;2023-04-05T05:40:00;1.00;;;0.80;;
16073;SDS011;8141;52.664;5.074;2023-04-05T05:42:27;1.37;;;1.13;;
16073;SDS011;8141;52.664;5.074;2023-04-05T05:44:53;2.07;;;0.90;;
16073;SDS011;8141;52.664;5.074;2023-04-05T05:49:45;1.97;;;0.87;;
16073;SDS011;8141;52.664;5.074;2023-04-05T05:52:11;0.87;;;0.80;;
16073;SDS011;8141;52.664;5.074;2023-04-05T05:57:03;1.50;;;0.90;;
16073;SDS011;8141;52.664;5.074;2023-04-05T06:01:54;1.70;;;0.80;;
16073;SDS011;8141;52.664;5.074;2023-04-05T06:04:20;1.73;;;0.97;;
16073;SDS011;8141;52.664;5.074;2023-04-05T06:09:12;2.67;;;0.90;;
16073;SDS011;8141;52.664;5.074;2023-04-05T06:11:39;3.90;;;0.80;;
16073;SDS011;8141;52.664;5.074;2023-04-05T06:14:05;1.53;;;0.90;;
16073;SDS011;8141;52.664;5.074;2023-04-05T06:16:32;0.87;;;0.87;;
16073;SDS011;8141;52.664;5.074;2023-04-05T06:18:59;3.13;;;1.13;;
16073;SDS011;8141;52.664;5.074;2023-04-05T06:21:25;1.40;;;0.90;;
16073;SDS011;8141;52.664;5.074;2023-04-05T06:23:51;2.47;;;1.03;;
16073;SDS011;8141;52.664;5.074;2023-04-05T06:26:18;3.50;;;1.10;;
16073;SDS011;8141;52.664;5.074;2023-04-05T06:28:47;1.23;;;0.87;;
16073;SDS011;8141;52.664;5.074;2023-04-05T06:31:14;5.17;;;2.27;;
16073;SDS011;8141;52.664;5.074;2023-04-05T06:33:41;8.37;;;3.67;;
16073;SDS011;8141;52.664;5.074;2023-04-05T06:36:08;6.83;;;2.90;;
16073;SDS011;8141;52.664;5.074;2023-04-05T06:38:34;7.33;;;3.30;;
16073;SDS011;8141;52.664;5.074;2023-04-05T06:41:00;10.47;;;3.40;;
16073;SDS011;8141;52.664;5.074;2023-04-05T06:43:27;9.73;;;3.87;;
16073;SDS011;8141;52.664;5.074;2023-04-05T06:45:56;8.93;;;3.83;;
16073;SDS011;8141;52.664;5.074;2023-04-05T06:48:22;9.77;;;3.47;;
16073;SDS011;8141;52.664;5.074;2023-04-05T06:53:24;5.63;;;3.90;;
16073;SDS011;8141;52.664;5.074;2023-04-05T06:55:52;5.00;;;3.60;;
16073;SDS011;8141;52.664;5.074;2023-04-05T06:58:24;8.10;;;3.80;;
16073;SDS011;8141;52.664;5.074;2023-04-05T07:00:51;6.57;;;3.27;;
16073;SDS011;8141;52.664;5.074;2023-04-05T07:03:17;7.53;;;4.40;;
16073;SDS011;8141;52.664;5.074;2023-04-05T07:05:53;11.57;;;3.80;;
16073;SDS011;8141;52.664;5.074;2023-04-05T07:08:24;6.57;;;3.40;;
16073;SDS011;8141;52.664;5.074;2023-04-05T07:10:51;6.07;;;3.97;;
16073;SDS011;8141;52.664;5.074;2023-04-05T07:13:18;5.40;;;3.17;;
16073;SDS011;8141;52.664;5.074;2023-04-05T07:15:45;4.50;;;3.43;;
16073;SDS011;8141;52.664;5.074;2023-04-05T07:20:39;3.60;;;2.80;;
16073;SDS011;8141;52.664;5.074;2023-04-05T07:23:06;8.90;;;3.13;;
16073;SDS011;8141;52.664;5.074;2023-04-05T07:27:57;4.67;;;2.97;;
16073;SDS011;8141;52.664;5.074;2023-04-05T07:30:24;8.33;;;3.50;;
16073;SDS011;8141;52.664;5.074;2023-04-05T07:32:51;4.07;;;3.03;;
16073;SDS011;8141;52.664;5.074;2023-04-05T07:35:18;4.13;;;3.00;;
16073;SDS011;8141;52.664;5.074;2023-04-05T07:40:09;5.30;;;3.03;;
16073;SDS011;8141;52.664;5.074;2023-04-05T07:42:36;5.03;;;3.47;;
16073;SDS011;8141;52.664;5.074;2023-04-05T07:45:02;3.97;;;3.23;;
16073;SDS011;8141;52.664;5.074;2023-04-05T07:47:29;6.87;;;3.17;;
16073;SDS011;8141;52.664;5.074;2023-04-05T07:49:58;3.77;;;2.83;;
16073;SDS011;8141;52.664;5.074;2023-04-05T07:52:24;4.77;;;2.80;;
16073;SDS011;8141;52.664;5.074;2023-04-05T07:57:16;4.17;;;2.60;;
16073;SDS011;8141;52.664;5.074;2023-04-05T07:59:46;6.47;;;3.77;;
16073;SDS011;8141;52.664;5.074;2023-04-05T08:02:15;5.10;;;2.73;;
16073;SDS011;8141;52.664;5.074;2023-04-05T08:04:41;5.67;;;3.10;;
16073;SDS011;8141;52.664;5.074;2023-04-05T08:07:07;6.33;;;3.20;;
16073;SDS011;8141;52.664;5.074;2023-04-05T08:09:34;3.73;;;2.77;;
16073;SDS011;8141;52.664;5.074;2023-04-05T08:12:00;4.10;;;2.70;;
16073;SDS011;8141;52.664;5.074;2023-04-05T08:14:26;4.13;;;2.90;;
16073;SDS011;8141;52.664;5.074;2023-04-05T08:16:53;3.13;;;2.40;;
16073;SDS011;8141;52.664;5.074;2023-04-05T08:19:19;4.93;;;2.90;;
16073;SDS011;8141;52.664;5.074;2023-04-05T08:24:10;4.27;;;2.47;;
16073;SDS011;8141;52.664;5.074;2023-04-05T08:26:36;6.77;;;3.00;;
16073;SDS011;8141;52.664;5.074;2023-04-05T08:31:27;4.33;;;2.70;;
16073;SDS011;8141;52.664;5.074;2023-04-05T08:33:53;5.13;;;3.00;;
16073;SDS011;8141;52.664;5.074;2023-04-05T08:38:45;5.10;;;2.80;;
16073;SDS011;8141;52.664;5.074;2023-04-05T08:41:17;3.57;;;2.40;;
16073;SDS011;8141;52.664;5.074;2023-04-05T08:43:54;4.23;;;2.73;;
16073;SDS011;8141;52.664;5.074;2023-04-05T08:46:22;4.87;;;2.67;;
16073;SDS011;8141;52.664;5.074;2023-04-05T08:48:49;4.47;;;2.93;;
16073;SDS011;8141;52.664;5.074;2023-04-05T08:51:21;3.10;;;2.63;;
16073;SDS011;8141;52.664;5.074;2023-04-05T08:53:48;2.83;;;2.40;;
16073;SDS011;8141;52.664;5.074;2023-04-05T08:56:15;4.60;;;2.93;;
16073;SDS011;8141;52.664;5.074;2023-04-05T08:58:52;3.63;;;2.70;;
16073;SDS011;8141;52.664;5.074;2023-04-05T09:01:32;3.00;;;2.37;;
16073;SDS011;8141;52.664;5.074;2023-04-05T09:04:04;4.03;;;2.60;;
16073;SDS011;8141;52.664;5.074;2023-04-05T09:06:35;3.77;;;2.27;;
16073;SDS011;8141;52.664;5.074;2023-04-05T09:09:02;3.43;;;2.80;;
16073;SDS011;8141;52.664;5.074;2023-04-05T09:11:32;3.27;;;2.27;;
16073;SDS011;8141;52.664;5.074;2023-04-05T09:14:01;5.10;;;2.90;;
16073;SDS011;8141;52.664;5.074;2023-04-05T09:16:29;3.87;;;2.40;;
16073;SDS011;8141;52.664;5.074;2023-04-05T09:18:58;4.30;;;2.20;;
16073;SDS011;8141;52.664;5.074;2023-04-05T09:23:52;4.03;;;2.87;;
16073;SDS011;8141;52.664;5.074;2023-04-05T09:26:20;6.10;;;2.50;;
16073;SDS011;8141;52.664;5.074;2023-04-05T09:28:48;3.77;;;2.53;;
16073;SDS011;8141;52.664;5.074;2023-04-05T09:31:30;3.00;;;2.13;;
16073;SDS011;8141;52.664;5.074;2023-04-05T09:33:58;3.07;;;2.50;;
16073;SDS011;8141;52.664;5.074;2023-04-05T09:36:28;5.93;;;2.50;;
16073;SDS011;8141;52.664;5.074;2023-04-05T09:39:06;3.10;;;2.23;;
16073;SDS011;8141;52.664;5.074;2023-04-05T09:41:33;3.25;;;2.42;;
16073;SDS011;8141;52.664;5.074;2023-04-05T09:44:00;3.33;;;2.03;;
16073;SDS011;8141;52.664;5.074;2023-04-05T09:46:30;3.37;;;2.50;;
16073;SDS011;8141;52.664;5.074;2023-04-05T09:48:59;3.40;;;2.43;;
16073;SDS011;8141;52.664;5.074;2023-04-05T09:51:33;4.60;;;2.87;;
16073;SDS011;8141;52.664;5.074;2023-04-05T09:54:05;5.15;;;2.88;;
16073;SDS011;8141;52.664;5.074;2023-04-05T09:56:38;7.17;;;2.60;;
16073;SDS011;8141;52.664;5.074;2023-04-05T09:59:09;2.50;;;2.00;;
16073;SDS011;8141;52.664;5.074;2023-04-05T10:01:37;3.03;;;2.40;;
16073;SDS011;8141;52.664;5.074;2023-04-05T10:04:07;4.17;;;2.40;;
16073;SDS011;8141;52.664;5.074;2023-04-05T10:06:33;4.70;;;2.30;;
16073;SDS011;8141;52.664;5.074;2023-04-05T10:09:05;3.53;;;2.30;;
16073;SDS011;8141;52.664;5.074;2023-04-05T10:11:32;3.87;;;2.60;;
16073;SDS011;8141;52.664;5.074;2023-04-05T10:14:00;4.03;;;2.20;;
16073;SDS011;8141;52.664;5.074;2023-04-05T10:16:31;6.30;;;2.80;;
16073;SDS011;8141;52.664;5.074;2023-04-05T10:19:24;4.23;;;2.60;;
16073;SDS011;8141;52.664;5.074;2023-04-05T10:21:54;4.90;;;2.23;;
16073;SDS011;8141;52.664;5.074;2023-04-05T10:29:44;6.20;;;2.53;;
16073;SDS011;8141;52.664;5.074;2023-04-05T10:32:45;3.60;;;2.37;;
16073;SDS011;8141;52.664;5.074;2023-04-05T10:35:42;3.27;;;2.10;;
16073;SDS011;8141;52.664;5.074;2023-04-05T10:41:04;3.27;;;2.50;;
16073;SDS011;8141;52.664;5.074;2023-04-05T10:43:39;2.50;;;2.00;;
16073;SDS011;8141;52.664;5.074;2023-04-05T10:46:06;3.30;;;1.87;;
16073;SDS011;8141;52.664;5.074;2023-04-05T10:51:35;4.00;;;2.07;;
16073;SDS011;8141;52.664;5.074;2023-04-05T10:54:02;3.67;;;2.20;;
16073;SDS011;8141;52.664;5.074;2023-04-05T10:56:29;3.63;;;2.13;;
16073;SDS011;8141;52.664;5.074;2023-04-05T10:58:56;3.23;;;2.00;;
16073;SDS011;8141;52.664;5.074;2023-04-05T11:01:23;2.53;;;1.87;;
16073;SDS011;8141;52.664;5.074;2023-04-05T11:03:50;3.13;;;2.00;;
16073;SDS011;8141;52.664;5.074;2023-04-05T11:06:17;3.87;;;2.30;;
16073;SDS011;8141;52.664;5.074;2023-04-05T11:09:13;2.50;;;1.90;;
16073;SDS011;8141;52.664;5.074;2023-04-05T11:11:45;4.43;;;1.87;;
16073;SDS011;8141;52.664;5.074;2023-04-05T11:20:42;3.93;;;2.00;;
16073;SDS011;8141;52.664;5.074;2023-04-05T11:23:29;3.77;;;2.50;;
16073;SDS011;8141;52.664;5.074;2023-04-05T11:28:34;3.50;;;2.10;;
16073;SDS011;8141;52.664;5.074;2023-04-05T11:31:16;3.50;;;2.17;;
16073;SDS011;8141;52.664;5.074;2023-04-05T11:36:13;3.23;;;2.27;;
16073;SDS011;8141;52.664;5.074;2023-04-05T11:41:53;3.20;;;2.10;;
16073;SDS011;8141;52.664;5.074;2023-04-05T11:44:23;4.30;;;2.53;;
16073;SDS011;8141;52.664;5.074;2023-04-05T11:49:16;3.20;;;2.17;;
16073;SDS011;8141;52.664;5.074;2023-04-05T11:54:11;3.13;;;2.17;;
16073;SDS011;8141;52.664;5.074;2023-04-05T11:56:36;6.07;;;2.60;;
16073;SDS011;8141;52.664;5.074;2023-04-05T12:01:28;4.03;;;2.40;;
16073;SDS011;8141;52.664;5.074;2023-04-05T12:06:21;3.03;;;2.47;;
16073;SDS011;8141;52.664;5.074;2023-04-05T12:08:48;4.77;;;2.50;;
16073;SDS011;8141;52.664;5.074;2023-04-05T12:11:15;3.60;;;2.40;;
16073;SDS011;8141;52.664;5.074;2023-04-05T12:13:50;4.30;;;2.43;;
16073;SDS011;8141;52.664;5.074;2023-04-05T12:16:22;3.27;;;2.93;;
16073;SDS011;8141;52.664;5.074;2023-04-05T12:18:56;3.27;;;2.73;;
16073;SDS011;8141;52.664;5.074;2023-04-05T12:21:25;4.50;;;2.60;;
16073;SDS011;8141;52.664;5.074;2023-04-05T12:23:52;4.00;;;2.43;;
16073;SDS011;8141;52.664;5.074;2023-04-05T12:26:18;3.83;;;2.90;;
16073;SDS011;8141;52.664;5.074;2023-04-05T12:28:58;3.70;;;2.53;;
16073;SDS011;8141;52.664;5.074;2023-04-05T12:31:34;3.27;;;2.90;;
16073;SDS011;8141;52.664;5.074;2023-04-05T12:34:09;3.73;;;2.63;;
16073;SDS011;8141;52.664;5.074;2023-04-05T12:36:38;5.23;;;3.43;;
16073;SDS011;8141;52.664;5.074;2023-04-05T12:39:08;4.20;;;2.70;;
16073;SDS011;8141;52.664;5.074;2023-04-05T12:41:35;4.50;;;3.17;;
16073;SDS011;8141;52.664;5.074;2023-04-05T12:44:04;4.20;;;3.00;;
16073;SDS011;8141;52.664;5.074;2023-04-05T12:46:40;4.00;;;3.10;;
16073;SDS011;8141;52.664;5.074;2023-04-05T12:49:14;5.17;;;3.30;;
16073;SDS011;8141;52.664;5.074;2023-04-05T12:51:42;5.37;;;2.70;;
16073;SDS011;8141;52.664;5.074;2023-04-05T12:54:12;3.37;;;2.40;;
16073;SDS011;8141;52.664;5.074;2023-04-05T12:56:39;4.03;;;3.03;;
16073;SDS011;8141;52.664;5.074;2023-04-05T12:59:06;3.77;;;2.70;;
16073;SDS011;8141;52.664;5.074;2023-04-05T13:01:32;4.37;;;2.80;;
16073;SDS011;8141;52.664;5.074;2023-04-05T13:04:02;2.97;;;2.53;;
16073;SDS011;8141;52.664;5.074;2023-04-05T13:06:31;5.03;;;3.03;;
16073;SDS011;8141;52.664;5.074;2023-04-05T13:11:22;2.83;;;2.37;;
16073;SDS011;8141;52.664;5.074;2023-04-05T13:13:49;5.57;;;3.20;;
16073;SDS011;8141;52.664;5.074;2023-04-05T13:16:14;6.63;;;3.80;;
16073;SDS011;8141;52.664;5.074;2023-04-05T13:18:41;5.17;;;3.70;;
16073;SDS011;8141;52.664;5.074;2023-04-05T13:21:07;5.60;;;3.20;;
16073;SDS011;8141;52.664;5.074;2023-04-05T13:23:34;4.03;;;2.83;;
16073;SDS011;8141;52.664;5.074;2023-04-05T13:26:01;5.87;;;3.20;;
16073;SDS011;8141;52.664;5.074;2023-04-05T13:28:28;3.37;;;2.87;;
16073;SDS011;8141;52.664;5.074;2023-04-05T13:30:54;9.03;;;3.53;;
16073;SDS011;8141;52.664;5.074;2023-04-05T13:35:46;6.07;;;3.50;;
16073;SDS011;8141;52.664;5.074;2023-04-05T13:38:12;4.40;;;3.13;;
16073;SDS011;8141;52.664;5.074;2023-04-05T13:43:03;7.50;;;3.77;;
16073;SDS011;8141;52.664;5.074;2023-04-05T13:45:29;6.00;;;3.00;;
16073;SDS011;8141;52.664;5.074;2023-04-05T13:47:56;3.53;;;2.70;;
16073;SDS011;8141;52.664;5.074;2023-04-05T13:52:49;4.47;;;3.05;;
16073;SDS011;8141;52.664;5.074;2023-04-05T13:55:15;4.90;;;3.70;;
16073;SDS011;8141;52.664;5.074;2023-04-05T13:57:42;4.43;;;3.30;;
16073;SDS011;8141;52.664;5.074;2023-04-05T14:02:34;4.15;;;3.30;;
16073;SDS011;8141;52.664;5.074;2023-04-05T14:07:26;5.87;;;3.37;;
16073;SDS011;8141;52.664;5.074;2023-04-05T14:09:52;4.50;;;3.03;;
16073;SDS011;8141;52.664;5.074;2023-04-05T14:14:43;6.33;;;3.27;;
16073;SDS011;8141;52.664;5.074;2023-04-05T14:19:36;4.38;;;3.30;;
16073;SDS011;8141;52.664;5.074;2023-04-05T14:22:03;4.33;;;3.20;;
16073;SDS011;8141;52.664;5.074;2023-04-05T14:24:29;5.57;;;3.83;;
16073;SDS011;8141;52.664;5.074;2023-04-05T14:29:21;5.37;;;3.77;;
16073;SDS011;8141;52.664;5.074;2023-04-05T14:31:47;8.07;;;3.83;;
16073;SDS011;8141;52.664;5.074;2023-04-05T14:36:39;3.70;;;3.17;;
16073;SDS011;8141;52.664;5.074;2023-04-05T14:39:05;4.40;;;3.47;;
16073;SDS011;8141;52.664;5.074;2023-04-05T14:41:31;5.77;;;3.60;;
16073;SDS011;8141;52.664;5.074;2023-04-05T14:43:57;5.83;;;3.50;;
16073;SDS011;8141;52.664;5.074;2023-04-05T14:48:48;5.43;;;3.40;;
16073;SDS011;8141;52.664;5.074;2023-04-05T14:53:40;6.03;;;3.83;;
16073;SDS011;8141;52.664;5.074;2023-04-05T14:58:35;4.70;;;3.30;;
16073;SDS011;8141;52.664;5.074;2023-04-05T15:03:27;4.87;;;3.40;;
16073;SDS011;8141;52.664;5.074;2023-04-05T15:08:18;6.20;;;3.37;;
16073;SDS011;8141;52.664;5.074;2023-04-05T15:13:10;6.53;;;3.73;;
16073;SDS011;8141;52.664;5.074;2023-04-05T15:15:37;5.23;;;4.00;;
16073;SDS011;8141;52.664;5.074;2023-04-05T15:18:03;4.80;;;3.27;;
16073;SDS011;8141;52.664;5.074;2023-04-05T15:20:31;5.80;;;3.37;;
16073;SDS011;8141;52.664;5.074;2023-04-05T15:22:59;5.63;;;3.70;;
16073;SDS011;8141;52.664;5.074;2023-04-05T15:27:50;6.77;;;4.03;;
16073;SDS011;8141;52.664;5.074;2023-04-05T15:30:18;5.07;;;3.60;;
16073;SDS011;8141;52.664;5.074;2023-04-05T15:32:44;6.50;;;3.87;;
16073;SDS011;8141;52.664;5.074;2023-04-05T15:37:36;8.37;;;3.97;;
16073;SDS011;8141;52.664;5.074;2023-04-05T15:40:03;5.80;;;4.20;;
16073;SDS011;8141;52.664;5.074;2023-04-05T15:42:32;5.53;;;3.97;;
16073;SDS011;8141;52.664;5.074;2023-04-05T15:44:58;5.13;;;3.87;;
16073;SDS011;8141;52.664;5.074;2023-04-05T15:49:49;5.17;;;4.03;;
16073;SDS011;8141;52.664;5.074;2023-04-05T15:52:15;4.20;;;3.50;;
16073;SDS011;8141;52.664;5.074;2023-04-05T15:54:42;5.27;;;3.53;;
16073;SDS011;8141;52.664;5.074;2023-04-05T15:57:08;6.10;;;3.53;;
16073;SDS011;8141;52.664;5.074;2023-04-05T15:59:35;5.80;;;3.70;;
16073;SDS011;8141;52.664;5.074;2023-04-05T16:04:28;5.53;;;3.72;;
16073;SDS011;8141;52.664;5.074;2023-04-05T16:06:54;5.33;;;3.70;;
16073;SDS011;8141;52.664;5.074;2023-04-05T16:09:20;5.70;;;4.10;;
16073;SDS011;8141;52.664;5.074;2023-04-05T16:11:47;5.17;;;4.00;;
16073;SDS011;8141;52.664;5.074;2023-04-05T16:16:38;6.53;;;4.00;;
16073;SDS011;8141;52.664;5.074;2023-04-05T16:21:32;5.33;;;3.80;;
16073;SDS011;8141;52.664;5.074;2023-04-05T16:23:58;4.63;;;3.63;;
16073;SDS011;8141;52.664;5.074;2023-04-05T16:26:28;6.87;;;3.73;;
16073;SDS011;8141;52.664;5.074;2023-04-05T16:28:54;8.03;;;3.83;;
16073;SDS011;8141;52.664;5.074;2023-04-05T16:31:20;6.20;;;4.20;;
16073;SDS011;8141;52.664;5.074;2023-04-05T16:36:12;4.30;;;3.17;;
16073;SDS011;8141;52.664;5.074;2023-04-05T16:41:05;7.33;;;4.83;;
16073;SDS011;8141;52.664;5.074;2023-04-05T16:45:56;6.00;;;3.60;;
16073;SDS011;8141;52.664;5.074;2023-04-05T16:50:48;5.97;;;4.20;;
16073;SDS011;8141;52.664;5.074;2023-04-05T16:53:14;9.83;;;4.00;;
16073;SDS011;8141;52.664;5.074;2023-04-05T16:58:05;5.47;;;3.87;;
16073;SDS011;8141;52.664;5.074;2023-04-05T17:02:57;6.57;;;3.83;;
16073;SDS011;8141;52.664;5.074;2023-04-05T17:05:23;6.03;;;4.63;;
16073;SDS011;8141;52.664;5.074;2023-04-05T17:10:15;4.37;;;3.70;;
16073;SDS011;8141;52.664;5.074;2023-04-05T17:12:41;4.93;;;3.90;;
16073;SDS011;8141;52.664;5.074;2023-04-05T17:15:09;6.43;;;4.03;;
16073;SDS011;8141;52.664;5.074;2023-04-05T17:17:36;5.47;;;4.27;;
16073;SDS011;8141;52.664;5.074;2023-04-05T17:20:03;5.43;;;4.00;;
16073;SDS011;8141;52.664;5.074;2023-04-05T17:22:29;5.47;;;3.73;;
16073;SDS011;8141;52.664;5.074;2023-04-05T17:24:55;5.77;;;4.20;;
16073;SDS011;8141;52.664;5.074;2023-04-05T17:27:21;6.17;;;4.03;;
16073;SDS011;8141;52.664;5.074;2023-04-05T17:29:48;4.60;;;3.33;;
16073;SDS011;8141;52.664;5.074;2023-04-05T17:32:14;7.33;;;4.60;;
16073;SDS011;8141;52.664;5.074;2023-04-05T17:34:40;7.90;;;4.70;;
16073;SDS011;8141;52.664;5.074;2023-04-05T17:39:32;12.73;;;7.20;;
16073;SDS011;8141;52.664;5.074;2023-04-05T17:44:23;14.70;;;7.77;;
16073;SDS011;8141;52.664;5.074;2023-04-05T17:49:15;14.47;;;8.07;;
16073;SDS011;8141;52.664;5.074;2023-04-05T17:54:06;17.70;;;8.73;;
16073;SDS011;8141;52.664;5.074;2023-04-05T17:58:57;9.93;;;5.80;;
16073;SDS011;8141;52.664;5.074;2023-04-05T18:03:50;10.15;;;6.50;;
16073;SDS011;8141;52.664;5.074;2023-04-05T18:08:42;11.60;;;5.70;;
16073;SDS011;8141;52.664;5.074;2023-04-05T18:11:07;10.37;;;6.70;;
16073;SDS011;8141;52.664;5.074;2023-04-05T18:15:59;9.53;;;6.33;;
16073;SDS011;8141;52.664;5.074;2023-04-05T18:18:25;10.30;;;6.30;;
16073;SDS011;8141;52.664;5.074;2023-04-05T18:20:52;10.10;;;6.17;;
16073;SDS011;8141;52.664;5.074;2023-04-05T18:23:19;7.60;;;5.60;;
16073;SDS011;8141;52.664;5.074;2023-04-05T18:25:48;10.23;;;5.77;;
16073;SDS011;8141;52.664;5.074;2023-04-05T18:28:15;10.03;;;5.93;;
16073;SDS011;8141;52.664;5.074;2023-04-05T18:33:07;9.47;;;6.67;;
16073;SDS011;8141;52.664;5.074;2023-04-05T18:35:33;9.10;;;6.50;;
16073;SDS011;8141;52.664;5.074;2023-04-05T18:40:25;8.87;;;6.20;;
16073;SDS011;8141;52.664;5.074;2023-04-05T18:45:16;10.10;;;6.00;;
16073;SDS011;8141;52.664;5.074;2023-04-05T18:47:43;12.17;;;6.80;;
16073;SDS011;8141;52.664;5.074;2023-04-05T18:52:35;11.13;;;6.67;;
16073;SDS011;8141;52.664;5.074;2023-04-05T18:55:04;9.37;;;6.43;;
16073;SDS011;8141;52.664;5.074;2023-04-05T18:57:31;9.77;;;6.53;;
16073;SDS011;8141;52.664;5.074;2023-04-05T18:59:58;10.23;;;6.33;;